Aeroporto :
LOGIN :

Iscrizione | Disclaimer

   EN    FR    IT 

 










Sommario :    VFR   VFR Marginale   IFR   IFR Intensivo   IFR Molto Intensivo
Visibilità : 
Base nubi : 
>= 8 km
>= 3000ft
5 / 8 km
1000 / 3000 ft
1500m / 5 km
500 / 1000 ft
800 / 1500m
200 / 500 ft
< 800m
< 200 ft
Simboli :   Temporali  Nebbia  Neve Forte  Precipitazioni Forti  Vento > 20 kt
SIGMETs :   Varie  Temporali  Ghiacco  Turbolenza  Onda orograficha  Ceneri Vulcaniche






- Altitudine del aeroporto : 297 ft
- Codice IATA : UIP


LFRQ - Quimper Pluguffan

ULTIMO METAR :
  • 072200Z AUTO 35005KT 320V020 CAVOK 14/12 Q1022

METARs OBSOLETI :
  • 072130Z AUTO 35004KT 300V030 CAVOK 14/12 Q1022
  • 072100Z AUTO 34004KT 300V010 CAVOK 14/12 Q1022 NOSIG
  • 072030Z AUTO 32007KT CAVOK 14/11 Q1022 NOSIG
  • 072000Z AUTO 33007KT 290V360 CAVOK 15/11 Q1022 NOSIG
  • 071930Z AUTO 33008KT CAVOK 16/11 Q1022 NOSIG

TAF TAF LFRQ
Valido dal 07 a 18 ore il 08 a 18 ore UTC


071700Z 0718/0818 VRB03KT CAVOK
BECMG 0801/0803 21011KT BKN015



MetMap, La meteo Aeronautica in un colpo d'occhio ! - Copyright ORBIFLY Dicembre 2007 - Disclaimer

ORBIFLY MET'MAP TEAM :

Programmazione e sviluppo : Alexandra Zaïnal
Concezione : Baudouin d'Aumeries
Aiuto per la programmazione : Marc-Olivier Méhu
Supporto tecnico e logistico : Manuel Goepfert
Aiuto per la traduzione : Arnaldo La Scala

Contatto : metmap@orbifly.com




FONTI E CREDITI :

   NOAA